createdAt,value
2022-08-26T00:01:16.000Z,97435.06
2022-08-26T00:03:44.659Z,97433.19
2022-08-26T00:06:11.840Z,97440.34
2022-08-26T00:08:40.290Z,97436.03
2022-08-26T00:11:08.991Z,97436.34
2022-08-26T00:13:37.306Z,97427.53
2022-08-26T00:16:05.799Z,97430.13
2022-08-26T00:18:38.560Z,97428.84
2022-08-26T00:21:07.924Z,97428.53
2022-08-26T00:23:35.740Z,97427.41
2022-08-26T00:26:04.761Z,97418.66
2022-08-26T00:28:32.744Z,97426.44
2022-08-26T00:31:00.634Z,97415.09
2022-08-26T00:33:28.145Z,97424.22
2022-08-26T00:35:56.697Z,97419.13
2022-08-26T00:38:24.193Z,97425.84
2022-08-26T00:40:53.486Z,97418.16
2022-08-26T00:43:23.477Z,97423.13
2022-08-26T00:45:55.635Z,97423.44
2022-08-26T00:48:27.780Z,97420.72
2022-08-26T00:51:04.178Z,97411.78
2022-08-26T00:53:36.931Z,97420.22
2022-08-26T00:56:08.152Z,97418.66
2022-08-26T00:58:37.964Z,97412.72
2022-08-26T01:01:08.518Z,97420.06
2022-08-26T01:03:37.733Z,97420.88
2022-08-26T01:06:12.517Z,97419.56
2022-08-26T01:08:40.728Z,97418.16
2022-08-26T01:11:08.682Z,97421.66
2022-08-26T01:13:37.259Z,97425.81
2022-08-26T01:16:07.325Z,97413.69
2022-08-26T01:18:34.980Z,97418.47
2022-08-26T01:21:11.799Z,97422.00
2022-08-26T01:23:45.031Z,97416.72
2022-08-26T01:26:20.040Z,97421.34
2022-08-26T01:28:50.611Z,97417.69
2022-08-26T01:31:22.564Z,97427.44
2022-08-26T01:33:55.299Z,97431.25
2022-08-26T01:36:24.814Z,97434.75
2022-08-26T01:38:53.720Z,97426.78
2022-08-26T01:41:27.348Z,97422.63
2022-08-26T01:43:57.950Z,97433.81
2022-08-26T01:46:28.497Z,97431.56
2022-08-26T01:48:58.448Z,97430.00
2022-08-26T01:51:27.217Z,97426.44
2022-08-26T01:53:56.015Z,97422.78
2022-08-26T01:56:23.922Z,97415.41
2022-08-26T01:58:54.178Z,97420.06
2022-08-26T02:01:22.337Z,97424.56
2022-08-26T02:03:58.093Z,97422.94
2022-08-26T02:06:25.445Z,97430.00
2022-08-26T02:08:57.154Z,97420.72
2022-08-26T02:11:24.308Z,97422.16
2022-08-26T02:13:58.649Z,97430.91
2022-08-26T02:16:28.596Z,97425.00
2022-08-26T02:18:56.079Z,97429.16
2022-08-26T02:21:24.892Z,97432.69
2022-08-26T02:23:52.849Z,97432.06
2022-08-26T02:26:25.414Z,97433.19
2022-08-26T02:28:58.405Z,97427.44
2022-08-26T02:31:25.723Z,97423.13
2022-08-26T02:33:52.987Z,97420.72
2022-08-26T02:36:21.606Z,97418.31
2022-08-26T02:38:48.758Z,97424.56
2022-08-26T02:41:16.033Z,97416.72
2022-08-26T02:43:46.592Z,97409.69
2022-08-26T02:46:13.938Z,97419.56
2022-08-26T02:48:55.059Z,97422.16
2022-08-26T02:51:22.352Z,97414.81
2022-08-26T02:53:50.202Z,97420.41
2022-08-26T02:56:18.390Z,97417.50
2022-08-26T02:58:47.309Z,97412.88
2022-08-26T03:01:22.928Z,97414.00
2022-08-26T03:03:50.399Z,97419.59
2022-08-26T03:06:17.703Z,97417.50
2022-08-26T03:08:45.075Z,97422.31
2022-08-26T03:11:12.784Z,97421.19
2022-08-26T03:13:41.246Z,97414.50
2022-08-26T03:16:10.762Z,97412.75
2022-08-26T03:18:37.991Z,97408.75
2022-08-26T03:21:06.249Z,97407.94
2022-08-26T03:23:33.795Z,97406.34
2022-08-26T03:26:01.867Z,97402.19
2022-08-26T03:28:29.353Z,97412.25
2022-08-26T03:30:56.832Z,97405.88
2022-08-26T03:33:26.765Z,97405.88
2022-08-26T03:35:55.003Z,97406.19
2022-08-26T03:38:23.735Z,97392.75
2022-08-26T03:40:51.283Z,97396.09
2022-08-26T03:43:19.780Z,97395.00
2022-08-26T03:45:47.101Z,97399.00
2022-08-26T03:48:14.303Z,97397.06
2022-08-26T03:50:43.373Z,97393.25
2022-08-26T03:53:13.132Z,97388.63
2022-08-26T03:55:41.462Z,97394.03
2022-08-26T03:58:08.731Z,97394.66
2022-08-26T04:00:36.409Z,97381.88
2022-08-26T04:03:03.805Z,97382.53
2022-08-26T04:05:31.024Z,97380.44
2022-08-26T04:07:59.893Z,97391.00
2022-08-26T04:10:29.058Z,97393.34
2022-08-26T04:12:59.006Z,97388.56
2022-08-26T04:15:31.152Z,97390.94
2022-08-26T04:17:58.259Z,97388.84
2022-08-26T04:20:25.563Z,97401.13
2022-08-26T04:22:52.791Z,97398.69
2022-08-26T04:25:21.323Z,97400.59
2022-08-26T04:27:48.578Z,97388.75
2022-08-26T04:30:17.882Z,97392.28
2022-08-26T04:32:45.112Z,97390.53
2022-08-26T04:35:12.256Z,97390.22
2022-08-26T04:37:39.561Z,97381.28
2022-08-26T04:40:11.012Z,97390.22
2022-08-26T04:42:39.644Z,97388.53
2022-08-26T04:45:10.048Z,97382.84
2022-08-26T04:47:37.591Z,97381.88
2022-08-26T04:50:06.238Z,97389.72
2022-08-26T04:52:34.914Z,97390.50
2022-08-26T04:55:02.287Z,97398.16
2022-08-26T04:57:29.779Z,97393.34
2022-08-26T04:59:58.269Z,97394.19
2022-08-26T05:02:25.378Z,97390.63
2022-08-26T05:04:52.491Z,97399.91
2022-08-26T05:07:19.635Z,97399.13
2022-08-26T05:09:46.917Z,97401.34
2022-08-26T05:12:14.045Z,97405.66
2022-08-26T05:14:43.621Z,97403.41
2022-08-26T05:17:14.951Z,97410.47
2022-08-26T05:19:42.986Z,97409.63
2022-08-26T05:22:10.317Z,97414.75
2022-08-26T05:24:40.706Z,97418.44
2022-08-26T05:27:11.748Z,97413.81
2022-08-26T05:29:39.897Z,97415.59
2022-08-26T05:32:07.207Z,97416.84
2022-08-26T05:34:35.745Z,97415.75
2022-08-26T05:37:06.596Z,97412.72
2022-08-26T05:39:33.935Z,97414.97
2022-08-26T05:42:01.522Z,97416.84
2022-08-26T05:44:29.534Z,97418.16
2022-08-26T05:47:16.612Z,97415.59
2022-08-26T05:49:51.408Z,97425.31
2022-08-26T05:52:18.955Z,97415.91
2022-08-26T05:54:46.154Z,97415.28
2022-08-26T05:57:15.484Z,97413.19
2022-08-26T05:59:42.694Z,97412.38
2022-08-26T06:02:10.179Z,97413.81
2022-08-26T06:04:37.329Z,97413.31
2022-08-26T06:07:05.899Z,97419.88
2022-08-26T06:09:37.093Z,97416.69
2022-08-26T06:12:05.948Z,97412.53
2022-08-26T06:14:33.114Z,97413.31
2022-08-26T06:17:00.275Z,97418.44
2022-08-26T06:19:32.878Z,97418.31
2022-08-26T06:22:01.770Z,97420.41
2022-08-26T06:24:30.336Z,97424.06
2022-08-26T06:26:59.713Z,97422.47
2022-08-26T06:29:28.907Z,97417.50
2022-08-26T06:31:57.417Z,97410.16
2022-08-26T06:34:29.880Z,97419.13
2022-08-26T06:37:01.393Z,97420.06
2022-08-26T06:39:31.534Z,97421.97
2022-08-26T06:41:59.249Z,97423.59
2022-08-26T06:44:26.971Z,97423.25
2022-08-26T06:46:54.355Z,97419.69
2022-08-26T06:49:26.902Z,97429.75
2022-08-26T06:51:55.673Z,97429.38
2022-08-26T06:54:22.799Z,97420.75
2022-08-26T06:56:51.299Z,97421.13
2022-08-26T06:59:18.433Z,97423.19
2022-08-26T07:01:45.879Z,97429.25
2022-08-26T07:04:15.947Z,97429.44
2022-08-26T07:06:50.044Z,97433.44
2022-08-26T07:09:21.157Z,97436.47
2022-08-26T07:11:48.353Z,97433.75
2022-08-26T07:14:21.133Z,97431.84
2022-08-26T07:16:49.418Z,97427.38
2022-08-26T07:19:16.740Z,97427.19
2022-08-26T07:21:44.049Z,97436.63
2022-08-26T07:24:11.469Z,97427.03
2022-08-26T07:26:42.889Z,97424.31
2022-08-26T07:29:10.861Z,97433.91
2022-08-26T07:31:42.884Z,97433.56
2022-08-26T07:34:10.598Z,97439.00
2022-08-26T07:36:37.742Z,97430.84
2022-08-26T07:39:05.857Z,97436.75
2022-08-26T07:41:33.648Z,97436.28
2022-08-26T07:44:01.271Z,97440.59
2022-08-26T07:46:30.210Z,97439.47
2022-08-26T07:48:59.147Z,97442.03
2022-08-26T07:51:27.787Z,97438.38
2022-08-26T07:53:55.189Z,97433.91
2022-08-26T07:56:22.859Z,97430.69
2022-08-26T07:58:51.781Z,97426.72
2022-08-26T08:01:19.534Z,97435.34
2022-08-26T08:03:46.782Z,97430.88
2022-08-26T08:06:19.246Z,97432.97
2022-08-26T08:08:46.708Z,97438.41
2022-08-26T08:11:14.691Z,97433.44
2022-08-26T08:13:41.857Z,97424.34
2022-08-26T08:16:12.753Z,97422.25
2022-08-26T08:18:40.189Z,97429.59
2022-08-26T08:21:22.046Z,97426.72
2022-08-26T08:23:54.291Z,97430.25
2022-08-26T08:26:22.461Z,97426.41
2022-08-26T08:28:49.710Z,97426.72
2022-08-26T08:31:38.556Z,97427.84
2022-08-26T08:34:08.115Z,97427.69
2022-08-26T08:36:36.053Z,97423.81
2022-08-26T08:39:04.928Z,97425.28
2022-08-26T08:41:52.314Z,97421.44
2022-08-26T08:46:55.202Z,97413.13
2022-08-26T08:49:23.279Z,97415.03
2022-08-26T08:51:56.663Z,97417.44
2022-08-26T08:54:25.196Z,97412.81
2022-08-26T08:56:59.785Z,97407.06
2022-08-26T08:59:31.581Z,97411.06
2022-08-26T09:02:08.687Z,97403.41
2022-08-26T09:04:54.537Z,97404.66
2022-08-26T09:07:25.369Z,97404.97
2022-08-26T09:09:57.467Z,97406.59
2022-08-26T09:12:29.343Z,97400.69
2022-08-26T09:15:02.192Z,97396.84
2022-08-26T09:17:42.107Z,97393.63
2022-08-26T09:20:17.984Z,97398.28
2022-08-26T09:22:45.202Z,97399.38
2022-08-26T09:25:14.859Z,97398.75
2022-08-26T09:27:44.801Z,97401.31
2022-08-26T09:30:14.862Z,97400.81
2022-08-26T09:32:42.845Z,97394.91
2022-08-26T09:35:26.235Z,97397.63
2022-08-26T09:37:53.702Z,97392.66
2022-08-26T09:40:30.278Z,97389.31
2022-08-26T09:43:13.898Z,97384.53
2022-08-26T09:45:49.374Z,97383.91
2022-08-26T09:48:30.698Z,97385.66
2022-08-26T09:51:00.342Z,97371.28
2022-08-26T09:53:30.688Z,97366.66
2022-08-26T09:56:15.927Z,97358.50
2022-08-26T09:58:45.460Z,97356.56
2022-08-26T10:01:17.147Z,97357.72
2022-08-26T10:03:47.141Z,97360.91
2022-08-26T10:06:24.555Z,97359.78
2022-08-26T10:08:54.755Z,97358.19
2022-08-26T10:11:32.975Z,97351.13
2022-08-26T10:14:04.661Z,97346.53
2022-08-26T10:16:42.504Z,97345.88
2022-08-26T10:19:13.458Z,97340.94
2022-08-26T10:21:54.158Z,97334.38
2022-08-26T10:24:25.962Z,97333.41
2022-08-26T10:27:02.285Z,97330.88
2022-08-26T10:29:36.242Z,97325.75
2022-08-26T10:32:10.356Z,97324.16
2022-08-26T10:34:41.141Z,97316.50
2022-08-26T10:37:16.146Z,97322.09
2022-08-26T10:39:57.257Z,97317.13
2022-08-26T10:42:32.560Z,97311.03
2022-08-26T10:45:06.631Z,97307.38
2022-08-26T10:47:47.578Z,97307.38
2022-08-26T10:50:15.347Z,97303.38
2022-08-26T10:52:57.507Z,97300.16
2022-08-26T10:55:30.057Z,97305.28
2022-08-26T10:58:26.455Z,97304.50
2022-08-26T11:01:00.321Z,97308.78
2022-08-26T11:03:35.363Z,97307.53
2022-08-26T11:06:21.336Z,97306.91
2022-08-26T11:08:49.913Z,97301.78
2022-08-26T11:11:47.018Z,97300.50
2022-08-26T11:14:53.100Z,97298.59
2022-08-26T11:17:55.685Z,97298.75
2022-08-26T11:20:34.435Z,97295.25
2022-08-26T11:23:45.150Z,97287.09
2022-08-26T11:26:35.735Z,97296.97
2022-08-26T11:29:12.860Z,97295.38
2022-08-26T11:31:56.362Z,97294.28
2022-08-26T11:34:51.013Z,97294.44
2022-08-26T11:39:56.954Z,97272.19
2022-08-26T11:42:35.679Z,97256.72
2022-08-26T11:45:16.621Z,97250.81
2022-08-26T11:47:45.137Z,97252.69
2022-08-26T11:50:15.617Z,97250.66
2022-08-26T11:52:51.504Z,97260.84
2022-08-26T11:55:19.100Z,97264.53
2022-08-26T11:57:49.199Z,97278.75
2022-08-26T12:00:21.772Z,97300.00
2022-08-26T12:02:53.431Z,97302.25
2022-08-26T12:05:26.821Z,97303.56
2022-08-26T12:08:04.110Z,97300.34
2022-08-26T12:10:33.405Z,97299.06
2022-08-26T12:13:03.608Z,97293.63
2022-08-26T12:15:33.053Z,97304.81
2022-08-26T12:18:20.776Z,97306.88
2022-08-26T12:21:00.356Z,97307.81
2022-08-26T12:23:38.962Z,97316.28
2022-08-26T12:26:10.405Z,97312.16
2022-08-26T12:28:43.507Z,97309.28
2022-08-26T12:31:10.711Z,97309.91
2022-08-26T12:33:39.311Z,97301.75
2022-08-26T12:36:06.792Z,97292.81
2022-08-26T12:38:35.856Z,97295.84
2022-08-26T12:41:03.095Z,97295.38
2022-08-26T12:43:41.996Z,97296.97
2022-08-26T12:46:12.045Z,97296.66
2022-08-26T12:48:42.469Z,97302.41
2022-08-26T12:51:21.651Z,97285.16
2022-08-26T12:53:48.825Z,97293.13
2022-08-26T12:56:24.867Z,97284.19
2022-08-26T12:59:06.784Z,97289.94
2022-08-26T13:01:40.564Z,97288.00
2022-08-26T13:04:33.010Z,97291.88
2022-08-26T13:07:14.167Z,97274.31
2022-08-26T13:09:41.431Z,97289.94
2022-08-26T13:12:10.290Z,97283.41
2022-08-26T13:14:37.648Z,97280.34
2022-08-26T13:17:04.866Z,97295.22
2022-08-26T13:19:33.350Z,97281.94
2022-08-26T13:22:01.201Z,97280.34
2022-08-26T13:24:32.941Z,97274.44
2022-08-26T13:27:00.867Z,97288.00
2022-08-26T13:29:28.193Z,97287.53
2022-08-26T13:31:56.357Z,97299.53
2022-08-26T13:34:25.414Z,97296.34
2022-08-26T13:36:55.315Z,97295.53
2022-08-26T13:39:24.046Z,97302.88
2022-08-26T13:41:51.865Z,97298.75
2022-08-26T13:44:19.323Z,97284.34
2022-08-26T13:46:46.519Z,97286.28
2022-08-26T13:49:14.069Z,97293.63
2022-08-26T13:51:41.466Z,97288.19
2022-08-26T13:54:09.966Z,97281.31
2022-08-26T13:56:37.420Z,97277.16
2022-08-26T13:59:05.328Z,97274.91
2022-08-26T14:01:32.939Z,97278.91
2022-08-26T14:04:00.094Z,97286.75
2022-08-26T14:06:27.255Z,97281.44
2022-08-26T14:08:55.570Z,97284.03
2022-08-26T14:11:24.518Z,97278.44
2022-08-26T14:13:51.791Z,97272.19
2022-08-26T14:16:23.100Z,97277.97
2022-08-26T14:18:51.040Z,97284.19
2022-08-26T14:21:18.700Z,97277.50
2022-08-26T14:23:45.931Z,97277.81
2022-08-26T14:26:21.222Z,97267.25
2022-08-26T14:28:58.796Z,97280.69
2022-08-26T14:31:26.633Z,97271.44
2022-08-26T14:33:55.786Z,97269.66
2022-08-26T14:36:22.914Z,97263.56
2022-08-26T14:38:50.088Z,97266.75
2022-08-26T14:41:18.506Z,97269.47
2022-08-26T14:43:48.894Z,97262.94
2022-08-26T14:46:17.977Z,97264.03
2022-08-26T14:48:45.241Z,97259.91
2022-08-26T14:51:12.365Z,97262.44
2022-08-26T14:53:39.498Z,97260.06
2022-08-26T14:56:06.697Z,97252.38
2022-08-26T14:58:34.980Z,97249.81
2022-08-26T15:01:04.216Z,97239.75
2022-08-26T15:03:33.071Z,97235.59
2022-08-26T15:06:00.214Z,97229.53
2022-08-26T15:08:27.383Z,97232.41
2022-08-26T15:10:54.544Z,97235.91
2022-08-26T15:13:21.663Z,97226.16
2022-08-26T15:15:48.840Z,97225.84
2022-08-26T15:18:15.983Z,97224.25
2022-08-26T15:20:44.464Z,97208.13
2022-08-26T15:23:11.914Z,97199.16
2022-08-26T15:25:39.250Z,97200.59
2022-08-26T15:28:06.405Z,97198.03
2022-08-26T15:30:33.563Z,97196.44
2022-08-26T15:33:00.734Z,97190.81
2022-08-26T15:35:28.103Z,97191.16
2022-08-26T15:38:01.544Z,97181.22
2022-08-26T15:40:28.879Z,97183.75
2022-08-26T15:43:11.316Z,97173.03
2022-08-26T15:45:43.129Z,97173.53
2022-08-26T15:48:10.288Z,97175.00
2022-08-26T15:50:48.383Z,97170.47
2022-08-26T15:53:16.928Z,97166.81
2022-08-26T15:55:44.107Z,97167.59
2022-08-26T15:58:11.426Z,97162.78
2022-08-26T16:00:38.663Z,97176.03
2022-08-26T16:03:05.998Z,97178.72
2022-08-26T16:05:33.406Z,97178.72
2022-08-26T16:08:00.604Z,97188.03
2022-08-26T16:10:29.623Z,97184.69
2022-08-26T16:12:56.793Z,97184.72
2022-08-26T16:15:23.999Z,97177.81
2022-08-26T16:17:51.187Z,97185.97
2022-08-26T16:20:18.450Z,97173.34
2022-08-26T16:22:45.604Z,97161.38
2022-08-26T16:25:12.852Z,97163.28
2022-08-26T16:27:41.337Z,97160.56
2022-08-26T16:30:09.775Z,97158.31
2022-08-26T16:32:36.919Z,97162.47
2022-08-26T16:35:04.902Z,97154.50
2022-08-26T16:37:33.760Z,97159.47
2022-08-26T16:40:03.999Z,97162.25
2022-08-26T16:42:31.174Z,97160.16
2022-08-26T16:44:59.753Z,97149.47
2022-08-26T16:47:27.020Z,97154.41
2022-08-26T16:49:54.177Z,97147.34
2022-08-26T16:52:21.369Z,97142.72
2022-08-26T16:54:51.986Z,97143.34
2022-08-26T16:57:19.475Z,97158.84
2022-08-26T16:59:46.634Z,97157.56
2022-08-26T17:02:15.151Z,97151.66
2022-08-26T17:04:42.378Z,97155.34
2022-08-26T17:07:14.389Z,97172.88
2022-08-26T17:09:41.584Z,97164.28
2022-08-26T17:12:09.420Z,97164.13
2022-08-26T17:14:36.559Z,97157.56
2022-08-26T17:17:03.791Z,97155.97
2022-08-26T17:19:32.799Z,97174.19
2022-08-26T17:22:08.046Z,97171.47
2022-08-26T17:24:35.466Z,97177.22
2022-08-26T17:27:02.745Z,97172.88
2022-08-26T17:29:29.930Z,97168.13
2022-08-26T17:31:57.262Z,97168.91
2022-08-26T17:34:24.614Z,97172.28
2022-08-26T17:36:53.146Z,97169.06
2022-08-26T17:39:20.345Z,97168.28
2022-08-26T17:41:47.469Z,97175.47
2022-08-26T17:44:14.621Z,97177.22
2022-08-26T17:46:41.804Z,97183.47
2022-08-26T17:49:09.011Z,97191.28
2022-08-26T17:51:36.142Z,97197.50
2022-08-26T17:54:04.857Z,97203.41
2022-08-26T17:56:32.130Z,97200.56
2022-08-26T17:59:03.521Z,97211.72
2022-08-26T18:01:31.814Z,97221.63
2022-08-26T18:04:00.611Z,97239.03
2022-08-26T18:06:29.109Z,97239.81
2022-08-26T18:08:56.374Z,97243.50
2022-08-26T18:11:24.890Z,97247.66
2022-08-26T18:13:52.088Z,97248.28
2022-08-26T18:16:19.964Z,97259.47
2022-08-26T18:18:48.939Z,97265.84
2022-08-26T18:21:19.052Z,97243.97
2022-08-26T18:23:47.392Z,97262.91
2022-08-26T18:26:19.044Z,97269.31
2022-08-26T18:28:47.794Z,97266.75
2022-08-26T18:31:15.034Z,97278.38
2022-08-26T18:33:42.643Z,97279.81
2022-08-26T18:36:15.799Z,97274.53
2022-08-26T18:38:42.938Z,97271.38
2022-08-26T18:41:10.244Z,97275.53
2022-08-26T18:43:37.512Z,97277.94
2022-08-26T18:46:08.386Z,97279.88
2022-08-26T18:48:37.243Z,97284.69
2022-08-26T18:51:04.658Z,97282.09
2022-08-26T18:53:31.790Z,97274.44
2022-08-26T18:55:59.227Z,97270.16
2022-08-26T18:58:26.398Z,97270.16
2022-08-26T19:00:53.665Z,97274.31
2022-08-26T19:03:22.154Z,97265.34
2022-08-26T19:05:49.619Z,97272.53
2022-08-26T19:08:16.758Z,97286.75
2022-08-26T19:10:44.192Z,97293.13
2022-08-26T19:13:12.675Z,97309.56
2022-08-26T19:15:45.100Z,97321.19
2022-08-26T19:18:13.878Z,97319.91
2022-08-26T19:20:46.623Z,97315.59
2022-08-26T19:23:30.844Z,97312.25
2022-08-26T19:25:58.959Z,97312.41
2022-08-26T19:28:26.107Z,97311.09
2022-08-26T19:30:53.624Z,97307.59
2022-08-26T19:33:20.956Z,97316.53
2022-08-26T19:35:49.608Z,97309.94
2022-08-26T19:38:16.791Z,97309.97
2022-08-26T19:40:44.123Z,97309.03
2022-08-26T19:43:11.988Z,97314.25
2022-08-26T19:45:39.817Z,97315.69
2022-08-26T19:48:07.032Z,97309.66
2022-08-26T19:50:34.714Z,97315.03
2022-08-26T19:53:03.663Z,97312.66
2022-08-26T19:55:31.324Z,97309.13
2022-08-26T19:57:58.627Z,97312.97
2022-08-26T20:00:29.540Z,97318.22
2022-08-26T20:02:56.746Z,97315.03
2022-08-26T20:05:25.936Z,97307.19
2022-08-26T20:07:53.722Z,97304.19
2022-08-26T20:10:24.348Z,97304.00
2022-08-26T20:12:51.722Z,97303.22
2022-08-26T20:15:20.128Z,97306.03
2022-08-26T20:17:47.607Z,97304.72
2022-08-26T20:20:32.898Z,97303.16
2022-08-26T20:23:01.094Z,97303.81
2022-08-26T20:25:29.763Z,97303.34
2022-08-26T20:27:56.872Z,97299.84
2022-08-26T20:30:24.074Z,97299.03
2022-08-26T20:32:51.264Z,97294.59
2022-08-26T20:35:18.899Z,97296.03
2022-08-26T20:37:46.027Z,97293.34
2022-08-26T20:40:14.961Z,97291.72
2022-08-26T20:42:43.576Z,97298.09
2022-08-26T20:45:11.413Z,97302.41
2022-08-26T20:47:38.550Z,97306.22
2022-08-26T20:50:06.215Z,97314.84
2022-08-26T20:52:33.370Z,97310.84
2022-08-26T20:55:00.523Z,97308.31
2022-08-26T20:57:27.691Z,97307.19
2022-08-26T20:59:56.158Z,97303.69
2022-08-26T21:02:23.295Z,97305.44
2022-08-26T21:04:50.480Z,97297.13
2022-08-26T21:07:17.733Z,97302.06
2022-08-26T21:09:44.930Z,97312.59
2022-08-26T21:12:12.936Z,97303.53
2022-08-26T21:14:40.102Z,97292.66
2022-08-26T21:17:08.621Z,97291.41
2022-08-26T21:19:35.897Z,97281.03
2022-08-26T21:22:03.206Z,97281.22
2022-08-26T21:24:30.435Z,97289.81
2022-08-26T21:26:57.970Z,97293.63
2022-08-26T21:29:25.161Z,97292.84
2022-08-26T21:31:52.341Z,97300.66
2022-08-26T21:34:20.862Z,97300.19
2022-08-26T21:36:48.604Z,97302.56
2022-08-26T21:39:16.068Z,97301.47
2022-08-26T21:41:44.630Z,97303.69
2022-08-26T21:44:12.973Z,97300.97
2022-08-26T21:46:41.011Z,97300.19
2022-08-26T21:49:10.782Z,97297.97
2022-08-26T21:51:44.810Z,97296.19
2022-08-26T21:54:12.640Z,97287.06
2022-08-26T21:56:42.702Z,97287.06
2022-08-26T21:59:10.218Z,97283.25
2022-08-26T22:01:37.647Z,97274.94
2022-08-26T22:04:07.995Z,97277.50
2022-08-26T22:06:41.663Z,97274.19
2022-08-26T22:09:08.982Z,97291.22
2022-08-26T22:11:36.619Z,97288.22
2022-08-26T22:14:04.292Z,97286.94
2022-08-26T22:16:31.491Z,97281.34
2022-08-26T22:18:58.659Z,97285.38
2022-08-26T22:21:26.836Z,97284.06
2022-08-26T22:23:56.427Z,97284.56
2022-08-26T22:26:28.114Z,97290.31
2022-08-26T22:28:59.169Z,97284.88
2022-08-26T22:31:28.093Z,97285.97
2022-08-26T22:34:07.446Z,97278.16
2022-08-26T22:36:34.683Z,97279.16
2022-08-26T22:39:03.887Z,97284.06
2022-08-26T22:41:33.339Z,97291.22
2022-08-26T22:44:01.264Z,97298.56
2022-08-26T22:46:28.524Z,97313.25
2022-08-26T22:48:55.668Z,97314.38
2022-08-26T22:51:23.155Z,97304.78
2022-08-26T22:53:50.335Z,97310.88
2022-08-26T22:56:18.853Z,97311.19
2022-08-26T22:58:46.083Z,97299.09
2022-08-26T23:01:13.353Z,97303.22
2022-08-26T23:03:40.565Z,97309.59
2022-08-26T23:06:08.897Z,97299.09
2022-08-26T23:08:36.363Z,97290.97
2022-08-26T23:11:07.336Z,97292.84
2022-08-26T23:13:36.218Z,97295.09
2022-08-26T23:16:05.653Z,97292.38
2022-08-26T23:18:32.864Z,97305.63
2022-08-26T23:21:00.214Z,97305.63
2022-08-26T23:23:27.488Z,97311.34
2022-08-26T23:25:55.485Z,97310.25
2022-08-26T23:28:22.770Z,97313.59
2022-08-26T23:30:51.291Z,97310.69
2022-08-26T23:33:18.445Z,97304.00
2022-08-26T23:35:45.670Z,97310.22
2022-08-26T23:38:14.354Z,97294.44
2022-08-26T23:40:41.569Z,97284.72
2022-08-26T23:43:10.409Z,97296.66
2022-08-26T23:45:37.633Z,97293.94
2022-08-26T23:48:06.504Z,97290.00
2022-08-26T23:50:34.227Z,97299.25
2022-08-26T23:53:01.353Z,97295.25
2022-08-26T23:55:29.127Z,97281.03
2022-08-26T23:57:56.274Z,97293.69
